Date,TemperatureHighF,TemperatureAvgF,TemperatureLowF,DewpointHighF,DewpointAvgF,DewpointLowF,HumidityHigh,HumidityAvg,HumidityLow,PressureMaxIn,PressureMinIn,WindSpeedMaxMPH,WindSpeedAvgMPH,GustSpeedMaxMPH,PrecipitationSumIn
2012-1-15,51.4,50.9,50.5,51.4,50.9,50.3,100,100,99,30.14,30.12,0,0,2,0.00
2012-1-16,68.7,53.4,41.4,51.5,46.1,40.8,100,79,45,30.25,30.09,4,1,7,0.00
2012-1-17,70.3,49.9,38.8,46.9,42.4,36.7,99,79,41,30.34,30.25,4,0,8,0.00
2012-1-18,71.8,45.5,35.1,46.2,39.3,34.3,99,84,35,30.35,30.28,2,0,4,0.00
2012-1-19,48.0,44.1,42.1,46.7,43.4,41.8,99,98,95,30.10,30.07,1,0,3,0.00
2012-1-20,70.3,55.1,42.3,55.6,49.9,42.0,99,85,53,30.18,30.06,5,2,6,0.07
2012-1-21,68.9,57.1,46.4,61.9,50.5,42.1,100,81,39,30.14,29.99,14,2,17,0.60
2012-1-22,68.5,58.4,49.8,53.6,50.5,11.5,100,77,47,30.24,30.13,5,2,10,0.03
2012-1-23,58.5,52.2,46.0,56.9,51.4,45.2,100,97,90,30.14,29.92,4,1,10,0.59
2012-1-24,77.0,55.8,42.8,51.8,45.1,38.7,100,72,34,30.28,30.08,6,1,15,0.01
2012-1-25,88.9,65.3,46.2,51.7,43.8,36.8,83,51,18,30.27,30.14,7,1,17,0.00
2012-1-26,86.2,64.1,49.6,59.3,51.7,45.0,100,69,28,30.16,30.01,5,1,11,0.00
2012-1-27,80.6,65.4,47.7,52.9,35.9,16.3,100,47,12,30.17,30.00,11,4,31,0.05
2012-1-28,79.2,69.8,61.9,24.3,19.1,16.3,18,14,12,30.26,30.15,14,7,34,0.06
2012-1-29,86.4,66.5,47.1,36.9,24.7,16.1,62,24,11,30.25,30.09,13,4,21,0.00
2012-1-30,74.5,51.6,39.6,54.4,38.5,23.2,100,67,16,30.09,29.98,7,1,8,0.00
2012-1-31,70.2,53.8,40.3,53.6,47.2,39.8,100,81,46,30.18,30.03,10,2,14,0.00
2012-2-1,68.9,57.0,45.3,54.9,49.7,43.4,100,79,52,30.22,30.09,5,2,7,0.00
2012-2-2,74.1,57.0,41.4,56.2,45.5,17.2,100,72,17,30.11,29.93,11,3,16,0.00
2012-2-3,75.0,64.3,56.7,24.1,18.5,16.3,23,17,12,30.08,29.99,17,9,24,0.00
2012-2-4,77.7,64.1,53.8,32.4,23.3,18.3,42,22,13,30.10,30.01,18,7,21,0.00
2012-2-5,79.2,64.6,46.6,46.5,33.1,19.9,84,39,13,30.09,29.99,13,5,19,0.00
2012-2-6,77.4,60.8,45.3,53.6,33.3,19.9,88,42,14,30.05,29.92,9,3,14,0.00
2012-2-7,72.0,60.5,54.1,51.8,46.1,35.1,84,61,34,30.03,29.87,10,4,17,0.00
2012-2-8,82.2,66.1,47.7,46.3,40.8,30.3,77,46,16,30.19,30.04,12,4,17,0.00
2012-2-9,53.4,51.5,50.0,42.2,39.5,38.0,71,63,57,30.21,30.18,2,1,4,0.00
2012-2-10,73.2,58.5,42.8,56.0,48.7,38.9,100,74,37,30.20,30.08,11,3,11,0.00
2012-2-11,69.1,58.8,47.1,56.6,52.0,46.9,100,80,53,30.08,29.95,10,4,18,0.00
2012-2-12,68.9,56.1,44.1,53.3,49.7,43.8,100,81,55,30.06,29.97,8,3,11,0.00
2012-2-13,66.6,55.5,46.0,52.7,45.9,35.5,95,73,36,30.06,29.89,16,6,25,0.00
2012-2-14,67.5,52.9,39.9,49.5,42.5,37.7,97,72,36,30.10,29.94,10,3,12,0.00
2012-2-15,66.0,52.9,41.2,54.2,41.0,25.3,92,66,24,30.12,29.92,12,3,16,0.02
2012-2-16,77.2,55.0,37.2,39.8,33.9,23.5,86,52,16,30.19,30.04,14,4,19,0.00
2012-2-17,77.5,57.9,44.1,48.8,38.0,24.3,88,52,15,30.21,30.09,8,3,13,0.00
2012-2-18,67.6,53.6,41.7,53.5,46.1,36.1,100,78,41,30.17,30.05,69,3,98,0.00
2012-2-19,67.3,54.9,43.2,52.1,47.5,43.0,100,79,46,30.12,30.00,4,1,10,0.00
2012-2-20,68.5,51.1,42.8,50.4,46.1,40.9,100,85,47,30.17,30.07,4,1,11,0.00
2012-2-21,82.4,58.5,39.9,49.3,39.6,21.2,100,61,11,30.18,30.11,6,2,17,0.00
2012-2-22,86.5,65.2,47.7,53.2,44.3,32.8,84,51,19,30.17,29.94,4,1,11,0.00
2012-2-23,78.8,62.4,45.3,55.7,46.0,34.5,86,58,27,29.95,29.83,5,1,14,0.00
2012-2-24,69.1,56.2,42.1,57.3,51.7,41.8,100,86,65,30.19,29.95,5,2,12,0.00
2012-2-25,69.6,57.1,45.9,53.4,51.0,45.1,100,82,55,30.19,29.99,5,1,14,0.00
2012-2-26,68.9,57.1,38.7,52.7,48.9,38.4,100,76,51,30.00,29.89,6,2,12,0.00
2012-2-27,63.3,52.3,46.2,53.6,44.7,34.7,100,76,56,29.97,29.85,6,2,16,0.00
2012-2-28,63.3,50.1,36.9,44.8,38.2,32.8,93,67,34,30.31,29.97,5,2,12,0.00
2012-2-29,64.8,52.8,38.5,52.7,45.8,35.5,100,79,46,30.33,30.20,6,2,17,0.00
2012-3-1,69.6,55.4,41.5,52.7,45.9,38.8,100,74,34,30.22,30.06,4,1,12,0.00
2012-3-2,76.1,58.9,39.7,44.4,27.0,13.0,96,41,12,30.30,30.11,13,3,31,0.09
2012-3-3,86.0,62.1,41.4,39.6,26.7,12.4,66,31,11,30.30,30.20,6,2,14,0.00
2012-3-4,91.9,72.4,46.0,50.3,35.5,20.1,73,34,11,30.15,29.92,8,2,17,0.00
2012-3-5,80.6,62.6,50.0,53.8,43.8,31.8,100,57,19,30.05,29.96,4,1,10,0.00
2012-3-6,65.5,53.5,41.9,51.8,45.0,34.6,100,76,43,29.99,29.78,8,2,17,0.00
2012-3-7,71.8,51.6,36.9,37.6,28.0,16.0,87,48,12,30.20,29.91,6,2,14,0.00
2012-3-8,81.9,57.2,35.6,36.9,28.3,16.6,78,43,11,30.30,30.20,12,2,25,0.00
2012-3-9,90.0,64.6,44.1,41.1,29.9,15.2,65,33,11,30.30,30.06,7,2,19,0.00
2012-3-10,74.8,57.2,41.5,51.2,42.0,25.0,100,62,18,30.06,29.99,5,1,12,0.00
2012-3-11,67.6,54.9,43.7,52.5,48.2,43.7,100,81,54,30.10,30.03,5,2,12,0.00
2012-3-12,68.7,56.4,43.7,50.9,48.4,43.7,100,77,52,30.12,30.03,5,2,13,0.00
2012-3-13,68.2,56.1,48.6,51.7,49.0,46.5,97,79,54,30.14,30.07,6,2,14,0.00
2012-3-14,69.3,57.9,43.0,54.5,50.9,42.5,100,80,55,30.21,30.12,6,2,14,0.01
2012-3-15,68.9,57.9,50.9,55.6,53.5,50.6,100,86,58,30.21,30.09,5,2,11,0.00
2012-3-16,63.0,56.4,52.3,57.5,54.3,52.3,100,93,77,30.12,29.96,3,1,10,0.01
2012-3-17,60.3,53.1,42.8,55.9,49.5,41.2,100,89,59,29.96,29.71,8,3,25,0.79
2012-3-18,59.9,50.4,40.1,45.8,40.8,34.6,100,72,45,29.99,29.75,10,4,27,0.05
2012-3-19,64.8,53.0,41.0,46.2,40.0,32.3,95,65,31,30.09,29.94,6,2,12,0.00
2012-3-20,70.7,55.6,39.7,48.4,41.5,31.3,100,64,26,30.18,30.08,5,1,11,0.00
2012-3-21,76.5,52.6,43.3,51.8,42.2,38.9,91,72,27,30.16,29.99,6,1,9,0.00
2012-3-22,70.3,58.9,42.8,56.5,51.3,42.8,100,78,52,30.01,29.91,5,2,11,0.00
2012-3-23,67.5,57.2,48.2,55.3,52.1,47.8,100,84,61,30.10,30.01,5,1,13,0.00
2012-3-24,71.8,55.3,46.8,54.4,49.9,46.5,100,84,47,30.04,29.95,7,2,14,0.00
2012-3-25,58.3,52.2,46.8,56.6,50.2,46.3,100,93,79,29.98,29.84,9,2,24,1.29
2012-3-26,68.5,53.9,41.9,54.9,47.5,41.6,100,81,55,30.17,29.98,7,1,11,0.01
2012-3-27,68.7,54.3,41.4,51.6,46.2,41.1,100,78,44,30.15,30.09,5,2,12,0.00
2012-3-28,66.0,49.4,44.6,56.0,46.8,43.5,100,91,60,30.15,29.90,2,0,5,0.00
2012-3-29,70.0,58.9,51.3,58.7,55.1,51.0,100,88,63,29.93,29.83,4,1,11,0.00
2012-3-30,69.1,56.5,48.4,57.3,53.0,48.1,100,89,64,29.88,29.80,5,1,11,0.00
2012-3-31,67.8,56.4,52.2,57.7,53.7,47.0,100,91,68,29.91,29.81,5,2,14,0.11
2012-4-1,78.3,58.4,42.3,48.3,41.5,22.4,100,60,16,29.92,29.84,9,2,24,0.00
2012-4-2,81.9,64.1,46.6,42.2,35.5,24.1,77,41,13,29.91,29.76,6,2,14,0.00
2012-4-3,77.4,61.2,46.2,52.8,45.6,39.8,100,61,29,29.85,29.78,6,2,9,0.00
2012-4-4,76.6,60.8,48.2,52.8,49.9,46.6,100,72,37,29.83,29.74,5,2,11,0.00
2012-4-5,70.2,57.9,45.9,51.4,45.4,38.3,100,68,33,29.89,29.73,9,2,18,0.05
2012-4-6,76.1,57.5,40.5,42.9,32.9,17.1,88,48,12,29.96,29.87,8,2,11,0.00
2012-4-7,88.9,69.2,43.3,44.6,34.4,18.5,79,34,11,29.89,29.83,6,2,14,0.00
2012-4-8,81.0,60.5,41.2,50.4,39.3,26.3,93,53,14,29.89,29.84,4,2,11,0.00
2012-4-9,75.0,57.9,41.4,52.1,44.7,36.2,100,67,27,29.86,29.77,5,2,24,0.00
2012-4-10,72.5,57.5,44.6,53.7,49.4,43.8,100,77,38,29.81,29.70,7,2,15,0.19
2012-4-11,67.1,54.4,50.5,56.7,52.5,49.1,100,94,56,29.98,29.68,7,2,15,0.65
2012-4-12,67.1,57.5,45.7,56.7,53.0,44.9,100,86,60,30.03,29.90,7,2,14,0.01
2012-4-13,59.2,54.7,50.4,56.9,51.5,42.4,100,90,65,29.90,29.61,8,3,21,0.46
2012-4-14,67.3,56.7,48.2,49.1,44.5,39.1,96,66,41,29.93,29.65,9,4,22,0.00
2012-4-15,69.3,62.6,48.0,53.3,50.1,45.6,97,65,47,29.94,29.88,5,2,14,0.00
2012-4-16,77.5,62.2,45.3,58.1,51.0,44.3,100,71,37,29.93,29.85,5,1,13,0.00
2012-4-17,79.9,67.0,46.8,57.0,53.2,46.5,99,66,39,29.84,29.73,4,2,13,0.00
2012-4-18,79.2,63.4,49.8,59.8,54.0,49.6,100,74,44,29.77,29.68,4,1,11,0.00
2012-4-19,75.6,63.2,51.8,60.1,56.4,51.8,100,81,56,29.75,29.66,4,2,10,0.00
2012-4-20,71.1,57.2,52.5,61.6,55.6,52.5,100,95,71,29.75,29.72,3,0,6,0.00
2012-4-21,75.4,61.6,55.4,62.2,57.3,55.1,100,87,59,29.75,29.65,5,2,8,0.00
2012-4-22,66.7,58.9,55.4,58.9,56.5,55.1,100,92,75,29.76,29.70,5,1,8,0.00
2012-4-23,63.0,58.3,54.5,57.1,55.0,53.5,99,89,76,29.83,29.75,3,1,5,0.01
2012-4-24,74.5,64.5,52.2,55.8,53.9,51.2,100,70,49,29.85,29.73,6,2,12,0.00
2012-4-25,90.7,65.8,56.7,62.4,57.2,54.1,100,77,32,29.82,29.53,8,2,21,0.04
2012-4-26,73.0,62.3,54.5,64.5,58.3,52.2,100,87,63,29.83,29.60,6,2,15,0.18
2012-4-27,73.8,61.7,47.8,57.6,52.2,47.6,100,75,45,29.86,29.70,6,2,15,0.00
2012-4-28,79.0,65.0,49.3,56.8,53.6,47.5,100,70,33,29.71,29.53,4,2,12,0.00
2012-4-29,76.5,58.8,50.7,57.8,54.0,50.5,100,87,49,29.64,29.58,2,0,5,0.00
2012-4-30,75.7,61.5,57.9,60.6,58.0,56.2,100,89,53,29.76,29.63,7,2,9,0.01
2012-5-1,64.4,59.3,56.3,59.0,56.8,55.2,100,92,79,29.74,29.67,3,1,7,0.02
2012-5-2,72.7,61.7,55.2,58.6,54.6,52.1,93,79,57,29.77,29.67,4,2,11,0.00
2012-5-3,72.9,62.6,53.1,57.6,54.8,51.8,100,78,54,29.83,29.74,6,2,13,0.00
2012-5-4,72.0,59.2,48.4,57.1,52.6,48.1,100,81,57,29.85,29.78,3,1,7,0.00
2012-5-5,77.4,63.7,48.2,58.2,53.6,47.9,100,73,43,29.78,29.69,7,2,11,0.00
2012-5-6,75.4,66.8,50.5,60.2,57.9,50.0,100,75,56,29.76,29.70,8,2,14,0.00
2012-5-7,75.6,63.6,53.8,61.4,57.6,53.0,100,83,58,29.77,29.65,5,2,14,0.00
2012-5-8,79.7,65.0,53.8,61.7,57.1,53.0,99,79,47,29.70,29.59,5,2,11,0.00
2012-5-9,82.0,66.5,51.1,61.1,56.6,50.6,100,74,45,29.67,29.58,5,2,12,0.00
2012-5-10,76.1,63.5,53.6,62.4,57.6,52.8,100,83,61,29.69,29.63,6,2,14,0.00
2012-5-11,75.2,63.4,55.2,59.2,57.2,54.4,100,82,55,29.80,29.67,5,2,11,0.00
2012-5-12,68.2,59.5,56.3,59.1,57.2,55.9,100,92,72,29.84,29.78,3,0,6,0.00
2012-5-13,71.2,62.1,51.6,58.4,55.8,51.3,100,81,62,29.87,29.77,5,2,14,0.00
2012-5-14,77.2,62.7,48.4,57.6,53.5,48.1,100,75,43,29.82,29.73,7,2,15,0.00
2012-5-15,80.1,64.6,48.9,58.3,54.3,48.7,100,73,39,29.75,29.63,6,2,13,0.13
2012-5-16,82.0,67.2,50.9,59.1,56.8,50.6,100,72,43,29.68,29.56,5,2,11,0.01
2012-5-17,75.9,64.0,53.6,63.4,56.7,52.8,100,79,52,29.64,29.56,8,2,14,0.04
2012-5-18,75.9,63.8,50.0,56.5,53.3,49.7,100,72,44,29.68,29.61,6,2,17,0.00
2012-5-19,56.5,53.8,51.3,54.2,52.6,51.0,100,96,91,29.67,29.66,1,0,3,0.00
2012-5-23,67.6,61.6,58.1,54.5,53.4,52.4,86,75,60,29.98,29.91,3,1,6,0.13
2012-5-24,76.3,64.7,53.4,60.9,56.3,52.1,97,76,55,30.01,29.91,6,2,14,0.00
2012-5-25,71.6,62.1,54.3,57.8,51.2,44.5,94,70,42,30.09,29.95,12,3,21,0.00
2012-5-26,70.9,59.6,45.9,54.2,49.1,44.0,94,70,46,30.33,30.08,6,2,15,0.00
2012-5-27,74.5,63.2,48.0,54.8,51.8,47.8,100,69,45,30.31,30.21,6,2,13,0.00
2012-5-28,83.1,71.7,49.8,59.2,54.1,49.6,100,57,34,30.22,30.15,5,2,14,0.00
2012-5-29,78.6,65.4,51.8,59.5,55.1,50.9,100,73,45,30.27,30.17,5,2,11,0.00
2012-5-30,76.8,63.9,52.2,58.8,55.5,52.2,100,77,51,30.30,30.22,6,2,13,0.66
2012-5-31,77.7,68.2,52.2,62.5,58.1,52.2,100,72,56,30.22,30.13,4,2,11,0.00
2012-6-1,77.2,66.0,57.0,63.8,59.6,55.8,99,82,60,29.95,29.88,6,2,11,0.00
2012-6-2,74.7,63.2,56.8,62.1,59.2,56.3,100,88,65,29.99,29.93,6,1,8,0.00
2012-6-3,74.3,65.2,59.5,63.3,60.3,57.3,95,85,65,30.03,29.93,5,2,11,0.00
2012-6-4,72.9,63.1,58.1,61.9,59.2,57.1,100,88,65,30.09,29.99,5,1,12,0.00
2012-6-5,78.3,61.8,55.0,59.2,53.6,48.7,99,77,37,30.06,29.97,8,1,13,0.00
2012-6-6,84.0,67.5,49.8,55.3,49.0,37.9,95,58,23,29.97,29.86,5,2,13,0.00
2012-6-7,81.9,69.1,52.2,58.5,53.9,47.8,96,63,32,29.95,29.88,5,2,14,0.00
2012-6-8,76.8,67.1,55.0,63.5,59.0,52.4,100,77,55,29.96,29.90,6,2,15,0.00
2012-6-9,75.4,65.3,56.8,61.6,58.9,56.3,100,81,59,29.94,29.87,5,2,14,0.00
2012-6-10,78.3,65.9,54.1,61.9,58.9,53.3,100,80,54,30.03,29.91,5,2,13,0.00
2012-6-11,77.2,68.0,62.2,62.6,60.1,58.5,93,77,58,30.07,29.99,6,2,11,0.00
2012-6-12,77.0,67.2,60.3,63.9,60.7,58.5,95,81,62,30.07,29.97,5,2,11,0.00
2012-6-13,74.1,63.9,59.0,62.1,59.8,58.2,100,87,64,29.98,29.88,4,2,11,0.00
2012-6-14,75.9,66.2,59.2,62.9,59.9,57.6,100,81,61,29.94,29.89,5,2,13,0.00
2012-6-15,75.4,65.9,60.4,62.0,58.7,57.7,93,78,62,29.96,29.91,6,2,12,0.00
2012-6-16,76.5,67.1,61.3,62.8,60.1,57.7,92,79,60,30.00,29.91,6,2,11,0.00
2012-6-17,78.6,67.4,61.3,64.7,61.5,59.8,96,83,57,30.04,29.97,6,2,13,0.00
2012-6-18,74.3,63.7,59.9,61.8,60.1,58.9,100,89,63,30.04,29.95,6,2,14,0.00
2012-6-19,76.3,64.6,57.9,61.5,59.0,57.1,100,83,57,30.02,29.92,6,2,13,0.00
2012-6-20,77.4,66.2,59.7,62.0,59.6,57.9,95,81,57,29.97,29.91,5,2,12,0.00
2012-6-21,75.0,64.6,57.4,62.1,59.4,56.5,97,84,64,30.03,29.95,5,2,16,0.00
2012-6-22,74.7,64.7,56.1,61.5,58.2,55.9,100,81,56,30.04,29.90,6,2,14,0.00
2012-6-23,77.0,65.8,55.4,62.5,57.8,54.2,100,77,55,29.97,29.89,6,2,14,0.00
2012-6-24,78.8,66.6,52.2,59.8,55.7,52.2,100,72,45,30.08,29.96,6,2,13,0.00
2012-6-25,78.8,64.3,50.7,59.8,54.4,50.4,100,74,39,30.12,30.06,5,2,13,0.00
2012-6-26,83.3,67.6,51.4,57.9,55.1,51.2,100,69,39,30.02,29.90,8,2,11,0.00
2012-6-27,83.5,66.0,52.9,60.1,56.5,52.3,100,75,41,30.02,29.91,6,1,9,0.00
2012-6-28,82.6,68.3,52.9,62.8,57.3,52.8,100,72,44,30.11,30.01,6,2,12,0.00
2012-6-29,80.1,70.7,53.1,61.3,58.5,52.8,100,68,46,29.94,29.85,6,2,11,0.00
2012-6-30,81.3,67.4,56.7,61.8,59.2,56.4,100,78,46,29.88,29.77,8,2,11,0.00
2012-7-1,79.3,67.3,58.8,64.3,60.5,57.7,99,81,54,29.83,29.73,5,2,13,0.00
2012-7-2,78.6,68.1,56.8,64.3,59.9,56.6,99,77,55,29.80,29.74,6,2,13,0.00
2012-7-3,77.9,65.7,56.3,64.8,60.4,56.0,99,84,63,29.85,29.76,5,2,13,0.00
2012-7-4,74.3,65.5,60.8,64.0,61.4,59.7,98,87,68,29.86,29.79,5,2,11,0.00
2012-7-5,77.5,65.7,60.8,63.7,60.8,57.6,98,85,59,29.91,29.84,5,2,12,0.00
2012-7-6,77.2,65.4,59.5,62.5,59.5,57.5,96,82,58,29.95,29.87,4,2,11,0.00
2012-7-7,78.1,64.7,57.9,61.9,59.2,57.6,99,84,54,29.94,29.87,5,2,12,0.00
2012-7-8,78.1,65.5,56.1,61.0,58.6,55.9,99,81,53,29.93,29.86,5,2,11,0.00
2012-7-9,83.3,68.2,54.1,64.0,58.1,53.3,99,74,43,29.88,29.77,4,2,11,0.00
2012-7-10,86.2,64.5,56.5,62.3,58.4,56.2,99,84,44,29.81,29.72,4,1,8,0.00
2012-7-11,81.0,71.1,58.1,64.4,60.4,57.8,99,71,51,29.80,29.69,5,2,11,0.00
2012-7-12,78.3,68.1,59.2,65.4,61.7,58.0,99,81,63,29.81,29.71,4,1,11,0.00
2012-7-13,87.8,72.4,61.5,66.2,62.3,59.1,92,73,47,29.83,29.72,4,2,11,0.00
2012-7-14,81.0,67.6,55.4,64.5,59.1,55.1,99,77,49,29.86,29.78,5,2,11,0.00
2012-7-15,78.3,67.3,58.3,63.8,60.7,57.4,98,81,59,29.87,29.78,5,2,12,0.00
2012-7-16,75.2,67.4,58.1,61.4,58.5,55.8,95,74,56,29.89,29.83,6,2,14,0.00
2012-7-17,78.6,68.1,59.9,61.7,59.0,57.1,96,74,49,29.91,29.85,6,2,14,0.00
2012-7-18,81.5,67.9,55.4,63.8,59.7,55.1,99,77,51,29.90,29.78,5,1,11,0.00
2012-7-19,90.0,74.8,61.7,65.2,61.5,56.8,92,67,34,29.85,29.78,4,2,11,0.00
2012-7-20,83.3,71.8,59.5,65.7,61.1,57.9,99,73,44,29.91,29.84,5,2,11,0.00
2012-7-21,84.0,70.6,57.0,65.1,61.6,56.7,99,76,50,29.89,29.77,5,2,12,0.00
2012-7-22,79.5,68.0,60.8,65.5,62.0,59.8,98,83,57,29.89,26.81,6,2,11,0.00
2012-7-23,78.1,66.8,61.2,64.3,61.0,59.3,97,83,59,29.91,29.83,5,2,11,0.00
2012-7-24,78.3,65.7,56.7,62.3,59.5,56.4,99,82,54,29.94,29.84,5,2,13,0.00
2012-7-25,78.3,65.4,55.0,61.0,58.4,54.2,99,80,54,29.95,29.85,6,2,12,0.00
2012-7-26,78.8,65.4,55.2,61.2,58.3,54.4,99,80,53,29.94,29.85,6,2,12,0.00
2012-7-27,77.4,64.5,53.8,61.2,57.6,53.0,99,81,54,29.95,29.86,5,2,12,0.00
2012-7-28,80.4,66.9,51.1,62.7,57.0,50.8,99,74,46,29.92,29.84,5,2,12,0.00
2012-7-29,81.0,67.4,52.7,64.1,58.8,52.2,99,76,47,29.91,29.81,5,2,12,0.00
2012-7-30,80.6,67.0,53.2,65.4,60.3,52.7,99,81,55,29.90,29.81,5,2,14,0.00
2012-7-31,79.0,66.9,58.1,65.5,61.7,57.8,99,85,62,29.94,29.87,6,2,13,0.00
2012-8-1,83.5,68.4,60.8,65.0,61.6,58.7,98,81,47,29.98,29.87,5,2,11,0.00
2012-8-2,80.6,67.8,58.3,65.3,61.4,57.8,99,82,54,29.92,29.80,7,2,14,0.00
2012-8-3,81.0,66.9,58.6,67.8,62.0,58.4,99,86,55,29.85,29.74,5,1,11,0.01
2012-8-4,80.4,67.2,60.3,66.2,62.7,60.0,99,87,62,29.85,29.76,4,1,11,0.00
2012-8-5,82.6,69.5,59.7,65.5,61.7,59.4,99,79,49,29.91,29.83,5,1,10,0.00
2012-8-6,86.4,71.4,58.8,65.5,62.1,58.5,99,76,46,29.91,29.80,6,1,11,0.00
2012-8-7,88.9,74.4,59.9,65.8,62.7,59.6,99,71,44,29.85,29.75,7,2,11,0.00
2012-8-8,87.6,73.3,60.4,65.5,61.7,59.3,98,70,43,29.83,29.75,5,2,11,0.00
2012-8-9,64.0,63.7,63.3,61.5,61.3,61.0,92,92,91,29.80,29.79,1,1,3,0.00
2012-8-23,64.9,64.1,54.7,63.9,63.1,53.9,97,96,96,30.03,29.92,1,1,4,0.01
2012-8-24,81.0,69.4,63.1,67.6,64.3,62.3,99,85,58,29.98,29.87,5,2,12,0.00
2012-8-25,81.1,68.9,63.3,65.6,63.2,60.9,99,83,55,29.95,29.86,5,2,11,0.00
2012-8-26,81.0,69.3,59.0,64.8,61.1,58.4,99,77,50,30.00,29.91,5,2,12,0.00
2012-8-27,88.5,71.3,53.8,62.1,57.7,52.1,99,68,30,30.00,29.91,5,1,12,0.00
2012-8-28,92.5,75.6,58.1,65.1,58.9,50.3,91,60,31,29.95,29.83,5,1,12,0.00
2012-8-29,91.2,79.4,66.0,70.9,66.5,62.2,97,67,42,29.85,29.77,6,2,13,0.00
2012-8-30,140.0,93.3,62.8,99.9,77.4,61.9,99,89,53,29.95,29.80,6,1,9,0.00
2012-8-31,140.0,140.0,140.0,99.9,99.9,99.9,99,93,60,30.01,29.83,3,0,8,0.00
2012-10-25,83.8,73.8,48.7,60.0,51.7,37.1,86,50,21,29.94,29.81,4,2,11,0.00
2012-10-26,88.0,77.1,66.4,44.8,30.0,20.5,44,19,12,29.90,29.79,13,4,21,0.00
2012-10-27,97.3,76.4,59.5,52.1,33.8,16.3,67,26,11,29.79,29.67,6,2,17,0.00
2012-10-28,86.7,67.8,50.4,59.5,42.6,32.8,71,43,20,29.79,29.73,5,1,11,0.00
2012-10-29,84.2,67.1,47.7,59.3,50.2,39.5,99,61,25,29.94,29.85,4,1,10,0.00
2012-10-30,77.9,60.7,43.7,59.1,51.8,40.9,99,76,36,29.93,29.82,4,1,10,0.00
2012-10-31,76.5,60.5,47.3,60.3,55.5,47.0,99,86,53,29.92,29.82,4,1,11,0.00
2012-11-1,74.5,61.1,51.6,59.3,55.9,51.3,99,85,56,29.88,29.81,4,1,10,0.00
2012-11-2,75.9,61.6,51.3,60.4,55.8,51.0,99,84,55,29.87,29.77,4,1,11,0.00
2012-11-3,80.1,62.1,49.3,63.1,54.9,49.0,99,81,47,29.91,29.82,4,1,8,0.00
2012-11-4,98.4,74.8,0.0,59.3,47.7,31.4,99,47,12,29.93,29.85,4,2,17,0.00
2012-11-5,100.6,74.2,59.2,52.5,40.8,30.3,63,34,11,29.93,29.84,6,2,17,0.14
2012-11-6,87.4,67.0,52.5,65.6,52.0,37.8,99,64,21,29.93,29.85,4,1,12,0.00
2012-11-7,60.1,58.8,57.6,59.8,58.6,57.3,99,99,99,29.92,29.88,2,1,4,0.00
2012-11-8,64.2,59.9,56.1,60.3,58.0,49.4,99,93,78,29.85,29.72,3,1,4,0.01
2012-11-9,70.3,57.6,41.7,55.0,45.4,40.9,99,67,40,29.81,29.71,7,2,18,0.00
2012-11-10,67.1,52.6,38.3,47.5,40.5,33.4,99,68,31,30.04,29.81,6,2,18,0.00
2012-11-11,73.2,53.6,37.8,41.5,31.4,16.3,86,53,12,30.17,30.03,6,2,22,0.00
2012-11-12,80.6,59.0,43.7,36.3,24.1,14.6,62,30,12,30.14,29.97,7,2,19,0.00
2012-11-13,89.8,66.1,49.3,43.6,24.9,13.5,55,23,11,29.99,29.86,4,2,14,0.00
2012-11-14,82.0,57.8,49.5,57.6,34.6,17.8,96,48,11,29.92,29.85,4,1,6,0.00
2012-11-15,70.2,58.6,50.7,58.5,50.7,39.1,98,76,54,29.97,29.86,3,0,6,0.04
2012-11-16,75.2,60.9,52.7,59.9,53.8,47.4,98,79,45,29.98,29.87,3,1,9,0.01
2012-11-17,66.2,61.0,58.1,65.8,60.5,57.3,99,98,93,29.94,29.88,2,1,7,0.45
2012-11-18,72.5,62.5,55.8,63.0,58.3,55.5,99,88,60,30.04,29.92,6,1,8,0.06
2012-11-19,75.4,56.8,50.0,61.9,54.0,49.7,99,92,54,30.11,30.02,4,0,8,0.00
2012-11-20,75.4,59.1,46.2,60.7,51.7,1.7,99,80,47,30.02,29.91,3,1,8,0.00
2012-11-21,75.0,64.5,55.6,60.3,57.6,54.9,99,81,54,29.92,29.81,3,1,8,0.01
2012-11-22,72.3,57.6,46.2,61.6,53.9,45.4,99,89,64,29.93,29.85,3,1,9,0.01
2012-11-23,140.0,56.7,47.5,62.8,53.8,47.2,99,91,64,29.98,29.89,3,1,8,0.01
2012-11-24,81.7,58.3,43.9,62.0,52.4,43.4,99,84,38,29.93,29.76,3,1,8,0.01
2012-11-25,74.8,59.0,43.9,61.8,53.3,42.7,99,84,37,29.82,29.70,5,1,11,0.00
2012-11-26,72.9,59.1,48.2,57.7,54.9,47.9,99,87,54,29.96,29.81,4,1,10,0.00
2012-11-27,74.8,56.8,46.9,60.1,52.6,46.7,99,87,56,30.01,29.91,6,2,15,0.00
2012-11-28,72.3,59.4,51.6,58.6,55.8,51.3,99,90,53,30.03,29.93,5,1,7,0.12
2012-11-29,69.8,62.6,58.3,64.2,61.1,58.0,99,95,81,30.05,29.96,3,1,5,0.32
2012-11-30,70.2,63.1,59.2,67.0,62.1,58.9,99,97,87,29.98,29.85,4,1,5,0.22
2012-12-1,72.0,62.8,59.7,66.5,61.5,59.4,99,96,74,30.01,29.91,4,1,7,0.18
2012-12-2,70.2,63.4,59.7,65.4,62.2,59.4,99,96,80,29.98,29.89,4,2,11,0.39
2012-12-3,73.9,61.8,52.3,66.6,59.4,51.6,99,92,71,30.03,29.92,4,1,10,0.02
2012-12-4,71.2,57.9,49.6,65.8,56.0,49.2,99,94,67,30.10,29.99,2,0,7,0.02
2012-12-5,74.7,58.4,48.9,64.3,54.2,48.7,99,88,54,30.00,29.92,3,1,7,0.00
2012-12-6,72.3,59.5,51.3,61.9,56.7,51.0,99,91,69,29.92,29.79,4,1,5,0.01
2012-12-7,71.6,57.4,45.3,61.0,53.8,44.5,99,89,67,29.89,29.82,4,1,6,0.01
2012-12-8,69.1,52.2,39.9,58.7,50.2,39.7,99,94,66,29.90,29.82,3,0,5,0.01
2012-12-9,71.8,55.1,45.9,58.7,51.4,45.1,99,89,56,30.03,29.88,4,1,9,0.00
2012-12-10,83.3,58.5,42.4,59.8,46.6,32.5,99,74,17,30.05,29.95,3,1,8,0.01
2012-12-11,76.5,57.6,41.0,59.5,46.9,39.7,99,73,31,29.96,29.84,4,1,10,0.00
2012-12-13,68.0,54.7,43.5,60.8,48.3,41.5,99,82,49,29.93,29.81,5,1,10,0.20
2012-12-14,44.2,42.2,40.3,42.3,40.8,39.2,97,95,92,29.87,29.85,3,0,5,0.00
2012-12-15,65.1,54.2,40.6,48.2,43.8,37.0,99,70,36,30.17,30.06,3,1,8,0.01
2012-12-16,55.9,53.0,49.6,55.1,51.2,46.0,99,94,78,30.23,29.59,4,2,11,0.02
2012-12-17,68.9,57.4,53.2,58.4,54.3,52.1,99,90,63,29.94,29.75,3,1,8,0.01
2012-12-18,68.7,58.1,49.5,60.8,45.8,22.3,99,70,21,29.75,29.57,8,2,19,0.17
2012-12-19,63.5,50.3,35.4,33.4,21.4,12.0,79,38,17,30.04,29.83,8,3,16,0.00
2012-12-20,69.4,55.4,47.5,20.8,16.1,12.6,34,22,14,30.01,29.85,9,4,14,0.00
2012-12-21,71.4,54.4,44.1,45.8,31.1,20.4,91,47,15,29.88,29.80,4,1,7,0.00
2012-12-22,63.9,53.3,37.4,54.4,47.4,33.9,98,84,34,29.94,29.83,3,1,7,0.07
2012-12-23,68.0,55.3,47.3,60.1,53.1,47.0,99,93,65,29.99,29.86,4,1,11,0.12
2012-12-24,70.9,57.0,49.8,62.1,54.2,45.2,99,91,64,29.86,29.75,4,1,8,0.41
2012-12-25,65.3,52.0,43.3,47.0,42.8,37.5,95,73,38,29.87,29.74,2,0,5,0.00
2012-12-26,65.7,54.8,46.2,57.5,47.7,40.3,99,79,50,29.75,29.67,7,2,19,0.11
2012-12-27,67.3,47.7,37.0,45.9,38.0,34.4,99,71,39,29.88,29.73,6,1,9,0.00
2012-12-28,71.2,51.1,37.6,48.4,37.9,27.4,91,65,22,29.93,29.83,5,1,10,0.00
2012-12-29,60.4,47.6,39.9,49.4,42.0,35.5,98,82,59,29.83,29.73,4,1,11,0.10
2012-12-30,66.0,48.6,35.4,46.2,38.5,33.2,99,72,35,29.85,29.68,4,1,8,0.00
2012-12-31,70.3,48.9,35.4,39.1,35.4,28.8,89,64,22,30.01,29.85,6,2,17,0.00
2013-1-1,66.7,52.5,39.6,39.3,26.7,16.5,84,44,18,30.00,29.86,9,3,22,0.00